sensor_id;sensor_type;location;lat;lon;timestamp;pressure;altitude;pressure_sealevel;temperature;humidity
9523;BME280;63165;43.016;25.784;2023-11-21T00:00:59;99913.19;;;2.84;100.00
9523;BME280;63165;43.016;25.784;2023-11-21T00:03:32;99912.41;;;2.89;100.00
9523;BME280;63165;43.016;25.784;2023-11-21T00:09:50;99916.44;;;2.69;99.49
9523;BME280;63165;43.016;25.784;2023-11-21T00:12:49;99916.31;;;2.60;99.72
9523;BME280;63165;43.016;25.784;2023-11-21T00:15:29;99915.41;;;2.55;100.00
9523;BME280;63165;43.016;25.784;2023-11-21T00:18:11;99918.00;;;2.56;99.95
9523;BME280;63165;43.016;25.784;2023-11-21T00:20:41;99938.69;;;2.58;100.00
9523;BME280;63165;43.016;25.784;2023-11-21T00:23:11;99927.53;;;2.60;100.00
9523;BME280;63165;43.016;25.784;2023-11-21T00:25:46;99913.66;;;2.53;100.00
9523;BME280;63165;43.016;25.784;2023-11-21T00:28:18;99900.84;;;2.61;100.00
9523;BME280;63165;43.016;25.784;2023-11-21T00:30:46;99911.28;;;2.69;100.00
9523;BME280;63165;43.016;25.784;2023-11-21T00:33:17;99907.59;;;2.50;100.00
9523;BME280;63165;43.016;25.784;2023-11-21T00:35:49;99913.63;;;2.49;100.00
9523;BME280;63165;43.016;25.784;2023-11-21T00:38:17;99950.06;;;2.70;100.00
9523;BME280;63165;43.016;25.784;2023-11-21T00:40:51;99909.34;;;2.51;100.00
9523;BME280;63165;43.016;25.784;2023-11-21T00:43:22;99904.19;;;2.52;100.00
9523;BME280;63165;43.016;25.784;2023-11-21T00:45:50;99908.56;;;2.60;100.00
9523;BME280;63165;43.016;25.784;2023-11-21T00:48:18;99918.09;;;2.62;100.00
9523;BME280;63165;43.016;25.784;2023-11-21T00:50:48;99915.56;;;2.67;100.00
9523;BME280;63165;43.016;25.784;2023-11-21T00:53:16;99884.56;;;2.67;100.00
9523;BME280;63165;43.016;25.784;2023-11-21T00:55:43;99904.34;;;2.65;100.00
9523;BME280;63165;43.016;25.784;2023-11-21T00:58:11;99907.00;;;2.69;100.00
9523;BME280;63165;43.016;25.784;2023-11-21T01:00:38;99894.94;;;2.70;100.00
9523;BME280;63165;43.016;25.784;2023-11-21T01:03:07;99886.22;;;2.62;100.00
9523;BME280;63165;43.016;25.784;2023-11-21T01:05:35;99901.03;;;2.74;100.00
9523;BME280;63165;43.016;25.784;2023-11-21T01:08:07;99905.13;;;2.59;100.00
9523;BME280;63165;43.016;25.784;2023-11-21T01:10:35;99908.56;;;2.57;100.00
9523;BME280;63165;43.016;25.784;2023-11-21T01:13:02;99923.44;;;2.76;100.00
9523;BME280;63165;43.016;25.784;2023-11-21T01:15:31;99894.06;;;2.68;100.00
9523;BME280;63165;43.016;25.784;2023-11-21T01:17:58;99875.88;;;2.60;100.00
9523;BME280;63165;43.016;25.784;2023-11-21T01:20:26;99917.38;;;2.74;100.00
9523;BME280;63165;43.016;25.784;2023-11-21T01:22:53;99907.88;;;2.70;100.00
9523;BME280;63165;43.016;25.784;2023-11-21T01:25:23;99903.50;;;2.66;100.00
9523;BME280;63165;43.016;25.784;2023-11-21T01:27:50;99872.94;;;2.36;99.73
9523;BME280;63165;43.016;25.784;2023-11-21T01:30:18;99893.84;;;2.51;100.00
9523;BME280;63165;43.016;25.784;2023-11-21T01:32:45;99888.44;;;2.34;100.00
9523;BME280;63165;43.016;25.784;2023-11-21T01:35:13;99905.88;;;2.49;100.00
9523;BME280;63165;43.016;25.784;2023-11-21T01:37:41;99901.50;;;2.46;100.00
9523;BME280;63165;43.016;25.784;2023-11-21T01:40:09;99880.50;;;2.22;100.00
9523;BME280;63165;43.016;25.784;2023-11-21T01:42:41;99896.09;;;2.28;100.00
9523;BME280;63165;43.016;25.784;2023-11-21T01:45:10;99890.91;;;2.25;100.00
9523;BME280;63165;43.016;25.784;2023-11-21T01:47:38;99867.47;;;2.12;100.00
9523;BME280;63165;43.016;25.784;2023-11-21T01:50:08;99891.88;;;2.35;100.00
9523;BME280;63165;43.016;25.784;2023-11-21T01:52:38;99882.22;;;2.20;100.00
9523;BME280;63165;43.016;25.784;2023-11-21T01:55:07;99874.50;;;2.21;100.00
9523;BME280;63165;43.016;25.784;2023-11-21T01:57:35;99877.31;;;2.38;100.00
9523;BME280;63165;43.016;25.784;2023-11-21T02:00:08;99870.25;;;2.25;100.00
9523;BME280;63165;43.016;25.784;2023-11-21T02:02:43;99899.75;;;2.42;100.00
9523;BME280;63165;43.016;25.784;2023-11-21T02:05:11;99878.78;;;2.19;100.00
9523;BME280;63165;43.016;25.784;2023-11-21T02:07:39;99889.97;;;2.21;100.00
9523;BME280;63165;43.016;25.784;2023-11-21T02:10:07;99898.66;;;2.25;100.00
9523;BME280;63165;43.016;25.784;2023-11-21T02:12:35;99891.78;;;2.27;100.00
9523;BME280;63165;43.016;25.784;2023-11-21T02:15:07;99910.13;;;2.45;100.00
9523;BME280;63165;43.016;25.784;2023-11-21T02:17:35;99880.63;;;2.29;100.00
9523;BME280;63165;43.016;25.784;2023-11-21T02:20:04;99891.81;;;2.30;100.00
9523;BME280;63165;43.016;25.784;2023-11-21T02:22:34;99896.09;;;2.29;100.00
9523;BME280;63165;43.016;25.784;2023-11-21T02:25:06;99884.03;;;2.27;100.00
9523;BME280;63165;43.016;25.784;2023-11-21T02:27:34;99888.34;;;2.28;100.00
9523;BME280;63165;43.016;25.784;2023-11-21T02:30:02;99885.69;;;2.22;100.00
9523;BME280;63165;43.016;25.784;2023-11-21T02:32:30;99896.09;;;2.28;100.00
9523;BME280;63165;43.016;25.784;2023-11-21T02:34:58;99889.09;;;2.21;100.00
9523;BME280;63165;43.016;25.784;2023-11-21T02:37:28;99889.09;;;2.21;100.00
9523;BME280;63165;43.016;25.784;2023-11-21T02:39:56;99868.38;;;2.14;100.00
9523;BME280;63165;43.016;25.784;2023-11-21T02:42:24;99889.09;;;2.19;100.00
9523;BME280;63165;43.016;25.784;2023-11-21T02:44:52;99879.53;;;2.12;100.00
9523;BME280;63165;43.016;25.784;2023-11-21T02:47:19;99870.91;;;2.13;100.00
9523;BME280;63165;43.016;25.784;2023-11-21T02:49:47;99868.38;;;2.16;100.00
9523;BME280;63165;43.016;25.784;2023-11-21T02:52:18;99874.38;;;2.15;100.00
9523;BME280;63165;43.016;25.784;2023-11-21T02:54:45;99859.69;;;2.08;100.00
9523;BME280;63165;43.016;25.784;2023-11-21T02:57:13;99863.22;;;2.16;100.00
9523;BME280;63165;43.016;25.784;2023-11-21T02:59:42;99884.84;;;2.24;100.00
9523;BME280;63165;43.016;25.784;2023-11-21T03:02:09;99853.75;;;2.15;100.00
9523;BME280;63165;43.016;25.784;2023-11-21T03:04:36;99864.91;;;2.12;100.00
9523;BME280;63165;43.016;25.784;2023-11-21T03:07:04;99869.13;;;2.09;100.00
9523;BME280;63165;43.016;25.784;2023-11-21T03:09:31;99870.88;;;2.08;100.00
9523;BME280;63165;43.016;25.784;2023-11-21T03:11:58;99868.41;;;2.18;100.00
9523;BME280;63165;43.016;25.784;2023-11-21T03:14:28;99871.03;;;2.21;100.00
9523;BME280;63165;43.016;25.784;2023-11-21T03:16:57;99887.44;;;2.26;100.00
9523;BME280;63165;43.016;25.784;2023-11-21T03:19:28;99871.94;;;2.23;100.00
9523;BME280;63165;43.016;25.784;2023-11-21T03:21:55;99865.81;;;2.16;100.00
9523;BME280;63165;43.016;25.784;2023-11-21T03:24:23;99883.94;;;2.21;100.00
9523;BME280;63165;43.016;25.784;2023-11-21T03:26:50;99864.06;;;2.15;100.00
9523;BME280;63165;43.016;25.784;2023-11-21T03:29:21;99881.25;;;2.14;100.00
9523;BME280;63165;43.016;25.784;2023-11-21T03:31:48;99890.69;;;2.11;100.00
9523;BME280;63165;43.016;25.784;2023-11-21T03:34:22;99897.47;;;2.04;100.00
9523;BME280;63165;43.016;25.784;2023-11-21T03:36:50;99892.41;;;2.10;100.00
9523;BME280;63165;43.016;25.784;2023-11-21T03:39:17;99891.56;;;2.13;100.00
9523;BME280;63165;43.016;25.784;2023-11-21T03:41:44;99902.81;;;2.17;100.00
9523;BME280;63165;43.016;25.784;2023-11-21T03:44:11;99899.22;;;2.07;100.00
9523;BME280;63165;43.016;25.784;2023-11-21T03:46:39;99898.28;;;2.00;100.00
9523;BME280;63165;43.016;25.784;2023-11-21T03:49:06;99881.88;;;1.98;100.00
9523;BME280;63165;43.016;25.784;2023-11-21T03:51:38;99892.19;;;1.98;100.00
9523;BME280;63165;43.016;25.784;2023-11-21T03:54:08;99889.50;;;1.90;100.00
9523;BME280;63165;43.016;25.784;2023-11-21T03:56:35;99886.94;;;1.92;100.00
9523;BME280;63165;43.016;25.784;2023-11-21T03:59:02;99869.56;;;1.80;100.00
9523;BME280;63165;43.016;25.784;2023-11-21T04:01:30;99866.84;;;1.71;100.00
9523;BME280;63165;43.016;25.784;2023-11-21T04:03:57;99872.91;;;1.73;100.00
9523;BME280;63165;43.016;25.784;2023-11-21T04:06:24;99865.19;;;1.74;100.00
9523;BME280;63165;43.016;25.784;2023-11-21T04:08:53;99881.78;;;1.92;100.00
9523;BME280;63165;43.016;25.784;2023-11-21T04:11:21;99872.94;;;1.78;100.00
9523;BME280;63165;43.016;25.784;2023-11-21T04:13:48;99876.44;;;1.81;100.00
9523;BME280;63165;43.016;25.784;2023-11-21T04:16:16;99871.41;;;1.87;100.00
9523;BME280;63165;43.016;25.784;2023-11-21T04:18:44;99906.69;;;1.90;100.00
9523;BME280;63165;43.016;25.784;2023-11-21T04:21:11;99889.41;;;1.84;100.00
9523;BME280;63165;43.016;25.784;2023-11-21T04:23:38;99906.66;;;1.88;100.00
9523;BME280;63165;43.016;25.784;2023-11-21T04:26:08;99868.59;;;1.73;100.00
9523;BME280;63165;43.016;25.784;2023-11-21T04:28:35;99892.94;;;1.89;100.00
9523;BME280;63165;43.016;25.784;2023-11-21T04:31:02;99884.31;;;1.87;100.00
9523;BME280;63165;43.016;25.784;2023-11-21T04:33:31;99887.72;;;1.86;100.00
9523;BME280;63165;43.016;25.784;2023-11-21T04:35:58;99890.31;;;1.86;100.00
9523;BME280;63165;43.016;25.784;2023-11-21T04:38:25;99890.34;;;1.88;100.00
9523;BME280;63165;43.016;25.784;2023-11-21T04:40:53;99903.13;;;1.82;100.00
9523;BME280;63165;43.016;25.784;2023-11-21T04:43:21;99905.78;;;1.86;100.00
9523;BME280;63165;43.016;25.784;2023-11-21T04:45:49;99900.81;;;1.97;100.00
9523;BME280;63165;43.016;25.784;2023-11-21T04:48:16;99909.38;;;1.96;100.00
9523;BME280;63165;43.016;25.784;2023-11-21T04:50:43;99895.66;;;1.99;100.00
9523;BME280;63165;43.016;25.784;2023-11-21T04:53:10;99860.19;;;1.84;100.00
9523;BME280;63165;43.016;25.784;2023-11-21T04:55:39;99894.91;;;2.04;100.00
9523;BME280;63165;43.016;25.784;2023-11-21T04:58:07;99893.19;;;2.06;100.00
9523;BME280;63165;43.016;25.784;2023-11-21T05:00:36;99892.31;;;2.04;100.00
9523;BME280;63165;43.016;25.784;2023-11-21T05:03:04;99890.47;;;1.97;100.00
9523;BME280;63165;43.016;25.784;2023-11-21T05:05:32;99902.53;;;1.97;100.00
9523;BME280;63165;43.016;25.784;2023-11-21T05:08:00;99878.91;;;1.73;100.00
9523;BME280;63165;43.016;25.784;2023-11-21T05:10:28;99896.16;;;1.78;100.00
9523;BME280;63165;43.016;25.784;2023-11-21T05:12:55;99892.00;;;1.84;100.00
9523;BME280;63165;43.016;25.784;2023-11-21T05:15:23;99910.91;;;1.85;100.00
9523;BME280;63165;43.016;25.784;2023-11-21T05:17:54;99919.25;;;1.68;100.00
9523;BME280;63165;43.016;25.784;2023-11-21T05:20:25;99903.81;;;1.71;100.00
9523;BME280;63165;43.016;25.784;2023-11-21T05:22:52;99910.75;;;1.75;100.00
9523;BME280;63165;43.016;25.784;2023-11-21T05:25:19;99907.28;;;1.73;100.00
9523;BME280;63165;43.016;25.784;2023-11-21T05:27:46;99920.22;;;1.75;100.00
9523;BME280;63165;43.016;25.784;2023-11-21T05:30:14;99920.25;;;1.77;100.00
9523;BME280;63165;43.016;25.784;2023-11-21T05:32:42;99940.03;;;1.78;100.00
9523;BME280;63165;43.016;25.784;2023-11-21T05:35:11;99908.16;;;1.75;100.00
9523;BME280;63165;43.016;25.784;2023-11-21T05:37:41;99905.44;;;1.66;100.00
9523;BME280;63165;43.016;25.784;2023-11-21T05:40:09;99909.81;;;1.69;100.00
9523;BME280;63165;43.016;25.784;2023-11-21T05:42:36;99904.75;;;1.77;100.00
9523;BME280;63165;43.016;25.784;2023-11-21T05:45:05;99904.75;;;1.75;100.00
9523;BME280;63165;43.016;25.784;2023-11-21T05:47:36;99891.81;;;1.73;100.00
9523;BME280;63165;43.016;25.784;2023-11-21T05:50:06;99922.16;;;1.88;100.00
9523;BME280;63165;43.016;25.784;2023-11-21T05:52:36;99913.38;;;1.77;100.00
9523;BME280;63165;43.016;25.784;2023-11-21T05:55:05;99923.19;;;2.00;100.00
9523;BME280;63165;43.016;25.784;2023-11-21T05:57:33;99934.44;;;2.03;100.00
9523;BME280;63165;43.016;25.784;2023-11-21T06:00:03;99917.38;;;2.11;100.00
9523;BME280;63165;43.016;25.784;2023-11-21T06:02:37;99893.94;;;1.99;100.00
9523;BME280;63165;43.016;25.784;2023-11-21T06:05:05;99916.56;;;2.16;100.00
9523;BME280;63165;43.016;25.784;2023-11-21T06:07:37;99922.59;;;2.16;100.00
9523;BME280;63165;43.016;25.784;2023-11-21T06:10:06;99920.03;;;2.18;100.00
9523;BME280;63165;43.016;25.784;2023-11-21T06:12:36;99935.63;;;2.25;100.00
9523;BME280;63165;43.016;25.784;2023-11-21T06:15:04;99927.94;;;2.28;100.00
9523;BME280;63165;43.016;25.784;2023-11-21T06:17:36;99936.38;;;2.18;100.00
9523;BME280;63165;43.016;25.784;2023-11-21T06:20:06;99918.56;;;2.35;100.00
9523;BME280;63165;43.016;25.784;2023-11-21T06:22:39;99936.69;;;2.38;100.00
9523;BME280;63165;43.016;25.784;2023-11-21T06:25:08;99925.50;;;2.39;100.00
9523;BME280;63165;43.016;25.784;2023-11-21T06:27:38;99918.66;;;2.41;100.00
9523;BME280;63165;43.016;25.784;2023-11-21T06:30:08;99934.16;;;2.43;100.00
9523;BME280;63165;43.016;25.784;2023-11-21T06:32:38;99933.47;;;2.53;100.00
9523;BME280;63165;43.016;25.784;2023-11-21T06:35:08;99911.94;;;2.52;100.00
9523;BME280;63165;43.016;25.784;2023-11-21T06:37:39;99935.31;;;2.63;100.00
9523;BME280;63165;43.016;25.784;2023-11-21T06:40:09;99931.06;;;2.67;100.00
9523;BME280;63165;43.016;25.784;2023-11-21T06:42:41;99956.09;;;2.72;100.00
9523;BME280;63165;43.016;25.784;2023-11-21T06:45:11;99927.78;;;2.79;100.00
9523;BME280;63165;43.016;25.784;2023-11-21T06:47:40;99909.50;;;2.65;100.00
9523;BME280;63165;43.016;25.784;2023-11-21T06:50:09;99903.56;;;2.70;100.00
9523;BME280;63165;43.016;25.784;2023-11-21T06:52:38;99902.72;;;2.71;100.00
9523;BME280;63165;43.016;25.784;2023-11-21T07:22:19;99900.66;;;3.16;100.00
9523;BME280;63165;43.016;25.784;2023-11-21T07:24:50;99887.91;;;3.33;100.00
9523;BME280;63165;43.016;25.784;2023-11-21T07:27:18;99907.72;;;3.33;100.00
9523;BME280;63165;43.016;25.784;2023-11-21T07:29:46;99904.31;;;3.38;100.00
9523;BME280;63165;43.016;25.784;2023-11-21T07:32:14;99879.44;;;3.48;100.00
9523;BME280;63165;43.016;25.784;2023-11-21T07:34:42;99895.03;;;3.59;100.00
9523;BME280;63165;43.016;25.784;2023-11-21T07:37:09;99904.59;;;3.66;100.00
9523;BME280;63165;43.016;25.784;2023-11-21T07:42:37;99904.97;;;4.12;100.00
9523;BME280;63165;43.016;25.784;2023-11-21T07:45:05;99899.88;;;4.26;100.00
9523;BME280;63165;43.016;25.784;2023-11-21T07:47:33;99906.91;;;4.44;100.00
9523;BME280;63165;43.016;25.784;2023-11-21T07:50:00;99887.13;;;4.58;100.00
9523;BME280;63165;43.016;25.784;2023-11-21T07:52:43;99881.13;;;4.72;100.00
9523;BME280;63165;43.016;25.784;2023-11-21T07:55:11;99892.44;;;4.91;100.00
9523;BME280;63165;43.016;25.784;2023-11-21T07:57:41;99889.88;;;5.04;100.00
9523;BME280;63165;43.016;25.784;2023-11-21T08:00:09;99891.66;;;5.19;100.00
9523;BME280;63165;43.016;25.784;2023-11-21T08:02:38;99880.47;;;5.39;100.00
9523;BME280;63165;43.016;25.784;2023-11-21T08:05:08;99890.88;;;5.59;100.00
9523;BME280;63165;43.016;25.784;2023-11-21T08:07:36;99881.34;;;5.70;100.00
9523;BME280;63165;43.016;25.784;2023-11-21T08:10:10;99868.38;;;5.89;100.00
9523;BME280;63165;43.016;25.784;2023-11-21T08:12:38;99883.97;;;6.06;100.00
9523;BME280;63165;43.016;25.784;2023-11-21T08:15:10;99871.84;;;6.18;100.00
9523;BME280;63165;43.016;25.784;2023-11-21T08:17:47;99862.34;;;6.13;100.00
9523;BME280;63165;43.016;25.784;2023-11-21T08:20:27;99867.53;;;6.27;100.00
9523;BME280;63165;43.016;25.784;2023-11-21T08:23:01;99867.47;;;6.39;100.00
9523;BME280;63165;43.016;25.784;2023-11-21T08:25:28;99863.13;;;6.43;100.00
9523;BME280;63165;43.016;25.784;2023-11-21T08:27:56;99873.47;;;6.63;100.00
9523;BME280;63165;43.016;25.784;2023-11-21T08:30:25;99879.50;;;6.69;100.00
9523;BME280;63165;43.016;25.784;2023-11-21T08:32:55;99853.53;;;6.63;100.00
9523;BME280;63165;43.016;25.784;2023-11-21T08:35:23;99851.75;;;6.73;100.00
9523;BME280;63165;43.016;25.784;2023-11-21T08:37:51;99823.97;;;6.89;100.00
9523;BME280;63165;43.016;25.784;2023-11-21T08:40:20;99845.56;;;7.00;100.00
9523;BME280;63165;43.016;25.784;2023-11-21T08:42:48;99829.88;;;7.14;100.00
9523;BME280;63165;43.016;25.784;2023-11-21T08:45:17;99842.75;;;7.34;100.00
9523;BME280;63165;43.016;25.784;2023-11-21T08:47:46;99820.19;;;7.36;100.00
9523;BME280;63165;43.016;25.784;2023-11-21T08:50:14;99837.38;;;7.60;100.00
9523;BME280;63165;43.016;25.784;2023-11-21T08:52:43;99818.16;;;7.72;100.00
9523;BME280;63165;43.016;25.784;2023-11-21T08:55:11;99816.25;;;7.92;100.00
9523;BME280;63165;43.016;25.784;2023-11-21T08:57:39;99806.56;;;8.04;100.00
9523;BME280;63165;43.016;25.784;2023-11-21T09:00:08;99808.88;;;8.33;100.00
9523;BME280;63165;43.016;25.784;2023-11-21T09:02:37;99792.22;;;8.48;100.00
9523;BME280;63165;43.016;25.784;2023-11-21T09:05:07;99811.72;;;8.86;100.00
9523;BME280;63165;43.016;25.784;2023-11-21T09:07:35;99796.78;;;8.99;100.00
9523;BME280;63165;43.016;25.784;2023-11-21T09:10:02;99771.47;;;9.04;99.79
9523;BME280;63165;43.016;25.784;2023-11-21T09:12:29;99776.34;;;9.27;99.20
9523;BME280;63165;43.016;25.784;2023-11-21T09:14:58;99768.31;;;9.39;98.91
9523;BME280;63165;43.016;25.784;2023-11-21T09:17:25;99753.41;;;9.44;98.50
9523;BME280;63165;43.016;25.784;2023-11-21T09:19:53;99760.09;;;9.62;97.85
9523;BME280;63165;43.016;25.784;2023-11-21T09:22:21;99759.66;;;9.85;97.50
9523;BME280;63165;43.016;25.784;2023-11-21T09:24:50;99752.47;;;9.97;96.03
9523;BME280;63165;43.016;25.784;2023-11-21T09:27:18;99752.84;;;10.25;95.07
9523;BME280;63165;43.016;25.784;2023-11-21T09:29:47;99747.50;;;10.31;93.96
9523;BME280;63165;43.016;25.784;2023-11-21T09:32:14;99736.13;;;10.32;94.15
9523;BME280;63165;43.016;25.784;2023-11-21T09:34:44;99735.94;;;10.41;93.49
9523;BME280;63165;43.016;25.784;2023-11-21T09:37:11;99733.94;;;10.54;92.93
9523;BME280;63165;43.016;25.784;2023-11-21T09:39:40;99753.63;;;10.71;92.36
9523;BME280;63165;43.016;25.784;2023-11-21T09:42:10;99731.56;;;10.82;91.50
9523;BME280;63165;43.016;25.784;2023-11-21T09:44:45;99720.47;;;11.08;90.43
9523;BME280;63165;43.016;25.784;2023-11-21T09:47:15;99723.78;;;11.17;90.31
9523;BME280;63165;43.016;25.784;2023-11-21T09:49:46;99701.66;;;11.29;90.33
9523;BME280;63165;43.016;25.784;2023-11-21T09:52:22;99708.16;;;11.48;89.66
9523;BME280;63165;43.016;25.784;2023-11-21T09:54:53;99697.34;;;11.60;88.87
9523;BME280;63165;43.016;25.784;2023-11-21T09:57:23;99687.72;;;11.61;89.05
9523;BME280;63165;43.016;25.784;2023-11-21T09:59:52;99689.03;;;11.77;88.89
9523;BME280;63165;43.016;25.784;2023-11-21T10:02:22;99677.38;;;11.88;88.53
9523;BME280;63165;43.016;25.784;2023-11-21T10:04:54;99684.88;;;12.03;87.93
9523;BME280;63165;43.016;25.784;2023-11-21T10:07:22;99676.47;;;12.21;87.39
9523;BME280;63165;43.016;25.784;2023-11-21T10:09:52;99678.59;;;12.38;86.36
9523;BME280;63165;43.016;25.784;2023-11-21T10:12:21;99669.28;;;12.56;86.05
9523;BME280;63165;43.016;25.784;2023-11-21T10:14:52;99655.47;;;12.79;85.32
9523;BME280;63165;43.016;25.784;2023-11-21T10:17:24;99649.91;;;12.89;84.31
9523;BME280;63165;43.016;25.784;2023-11-21T10:19:56;99647.28;;;13.15;82.75
9523;BME280;63165;43.016;25.784;2023-11-21T10:22:24;99644.16;;;13.29;81.31
9523;BME280;63165;43.016;25.784;2023-11-21T10:24:53;99643.47;;;13.51;80.91
9523;BME280;63165;43.016;25.784;2023-11-21T10:27:20;99647.75;;;13.53;80.27
9523;BME280;63165;43.016;25.784;2023-11-21T10:29:51;99641.88;;;13.70;79.18
9523;BME280;63165;43.016;25.784;2023-11-21T10:32:18;99643.56;;;13.73;77.71
9523;BME280;63165;43.016;25.784;2023-11-21T10:34:55;99635.63;;;13.98;76.08
9523;BME280;63165;43.016;25.784;2023-11-21T10:37:28;99615.38;;;14.00;75.41
9523;BME280;63165;43.016;25.784;2023-11-21T10:39:59;99612.72;;;14.24;74.95
9523;BME280;63165;43.016;25.784;2023-11-21T10:42:26;99615.25;;;14.49;73.76
9523;BME280;63165;43.016;25.784;2023-11-21T10:45:12;99605.22;;;14.59;72.15
9523;BME280;63165;43.016;25.784;2023-11-21T10:48:10;99599.78;;;14.85;71.08
9523;BME280;63165;43.016;25.784;2023-11-21T10:54:06;99606.63;;;15.51;67.19
9523;BME280;63165;43.016;25.784;2023-11-21T10:57:17;99579.34;;;15.71;65.34
9523;BME280;63165;43.016;25.784;2023-11-21T10:59:50;99566.50;;;15.84;62.80
9523;BME280;63165;43.016;25.784;2023-11-21T11:02:24;99571.94;;;16.36;58.47
9523;BME280;63165;43.016;25.784;2023-11-21T11:04:54;99557.72;;;16.58;57.16
9523;BME280;63165;43.016;25.784;2023-11-21T11:07:28;99558.00;;;16.88;55.63
9523;BME280;63165;43.016;25.784;2023-11-21T11:10:00;99547.28;;;17.08;54.75
9523;BME280;63165;43.016;25.784;2023-11-21T11:12:35;99563.84;;;17.45;54.69
9523;BME280;63165;43.016;25.784;2023-11-21T11:15:04;99532.63;;;17.52;53.65
9523;BME280;63165;43.016;25.784;2023-11-21T11:17:35;99546.88;;;17.83;52.26
9523;BME280;63165;43.016;25.784;2023-11-21T11:20:05;99517.19;;;17.94;51.11
9523;BME280;63165;43.016;25.784;2023-11-21T11:22:41;99531.03;;;18.15;50.67
9523;BME280;63165;43.016;25.784;2023-11-21T11:25:25;99528.34;;;18.31;50.28
9523;BME280;63165;43.016;25.784;2023-11-21T11:28:03;99527.06;;;18.38;50.06
9523;BME280;63165;43.016;25.784;2023-11-21T11:30:43;99525.84;;;18.43;50.33
9523;BME280;63165;43.016;25.784;2023-11-21T11:33:22;99514.13;;;18.48;49.27
9523;BME280;63165;43.016;25.784;2023-11-21T11:35:56;99518.31;;;18.52;49.12
9523;BME280;63165;43.016;25.784;2023-11-21T11:38:31;99521.13;;;18.49;48.63
9523;BME280;63165;43.016;25.784;2023-11-21T11:41:02;99513.63;;;18.41;48.04
9523;BME280;63165;43.016;25.784;2023-11-21T11:43:32;99514.41;;;18.43;47.89
9523;BME280;63165;43.016;25.784;2023-11-21T11:46:10;99516.72;;;18.33;47.89
9523;BME280;63165;43.016;25.784;2023-11-21T11:48:39;99501.84;;;18.31;49.11
9523;BME280;63165;43.016;25.784;2023-11-21T11:51:10;99501.53;;;18.21;49.29
9523;BME280;63165;43.016;25.784;2023-11-21T11:53:41;99498.72;;;18.24;48.74
9523;BME280;63165;43.016;25.784;2023-11-21T11:56:28;99484.53;;;18.25;48.15
9523;BME280;63165;43.016;25.784;2023-11-21T11:58:59;99480.00;;;18.27;49.70
9523;BME280;63165;43.016;25.784;2023-11-21T12:01:28;99484.28;;;18.30;49.84
9523;BME280;63165;43.016;25.784;2023-11-21T12:04:24;99475.13;;;18.35;48.79
9523;BME280;63165;43.016;25.784;2023-11-21T12:06:59;99476.50;;;18.27;49.37
9523;BME280;63165;43.016;25.784;2023-11-21T12:09:29;99474.97;;;18.22;47.86
9523;BME280;63165;43.016;25.784;2023-11-21T12:11:58;99451.69;;;18.13;47.21
9523;BME280;63165;43.016;25.784;2023-11-21T12:14:28;99460.00;;;18.21;47.50
9523;BME280;63165;43.016;25.784;2023-11-21T12:16:55;99458.25;;;18.22;48.27
9523;BME280;63165;43.016;25.784;2023-11-21T12:19:23;99465.22;;;18.23;48.02
9523;BME280;63165;43.016;25.784;2023-11-21T12:21:51;99454.25;;;18.15;47.75
9523;BME280;63165;43.016;25.784;2023-11-21T12:24:19;99446.81;;;18.06;48.62
9523;BME280;63165;43.016;25.784;2023-11-21T12:26:46;99457.34;;;18.07;48.22
9523;BME280;63165;43.016;25.784;2023-11-21T12:29:13;99449.38;;;18.07;48.17
9523;BME280;63165;43.016;25.784;2023-11-21T12:31:44;99450.41;;;18.04;48.19
9523;BME280;63165;43.016;25.784;2023-11-21T12:34:12;99448.94;;;17.99;47.29
9523;BME280;63165;43.016;25.784;2023-11-21T12:36:39;99446.22;;;18.00;47.39
9523;BME280;63165;43.016;25.784;2023-11-21T12:39:06;99448.38;;;17.94;48.92
9523;BME280;63165;43.016;25.784;2023-11-21T12:41:36;99412.16;;;17.78;49.19
9523;BME280;63165;43.016;25.784;2023-11-21T12:44:04;99435.41;;;17.89;50.65
9523;BME280;63165;43.016;25.784;2023-11-21T12:46:43;99424.38;;;17.81;49.60
9523;BME280;63165;43.016;25.784;2023-11-21T12:49:15;99410.69;;;17.73;49.32
9523;BME280;63165;43.016;25.784;2023-11-21T12:51:59;99431.13;;;17.87;49.61
9523;BME280;63165;43.016;25.784;2023-11-21T12:54:27;99418.47;;;17.76;50.59
9523;BME280;63165;43.016;25.784;2023-11-21T12:56:59;99405.44;;;17.57;52.59
9523;BME280;63165;43.016;25.784;2023-11-21T12:59:27;99442.88;;;17.65;53.35
9523;BME280;63165;43.016;25.784;2023-11-21T13:01:58;99436.16;;;17.59;53.70
9523;BME280;63165;43.016;25.784;2023-11-21T13:04:32;99429.66;;;17.49;54.24
9523;BME280;63165;43.016;25.784;2023-11-21T13:07:03;99437.75;;;17.46;55.18
9523;BME280;63165;43.016;25.784;2023-11-21T13:09:36;99413.69;;;17.19;55.07
9523;BME280;63165;43.016;25.784;2023-11-21T13:12:03;99437.41;;;17.36;56.08
9523;BME280;63165;43.016;25.784;2023-11-21T13:14:31;99458.22;;;17.26;54.82
9523;BME280;63165;43.016;25.784;2023-11-21T13:17:03;99445.31;;;17.20;52.81
9523;BME280;63165;43.016;25.784;2023-11-21T13:19:31;99453.25;;;17.20;52.65
9523;BME280;63165;43.016;25.784;2023-11-21T13:21:58;99457.84;;;17.17;53.21
9523;BME280;63165;43.016;25.784;2023-11-21T13:24:28;99451.34;;;17.06;52.89
9523;BME280;63165;43.016;25.784;2023-11-21T13:29:30;99473.81;;;16.98;53.63
9523;BME280;63165;43.016;25.784;2023-11-21T13:31:58;99470.03;;;16.86;54.14
9523;BME280;63165;43.016;25.784;2023-11-21T13:34:36;99456.66;;;16.72;53.97
9523;BME280;63165;43.016;25.784;2023-11-21T13:37:14;99449.50;;;16.74;54.75
9523;BME280;63165;43.016;25.784;2023-11-21T13:40:05;99466.69;;;16.65;54.55
9523;BME280;63165;43.016;25.784;2023-11-21T13:42:46;99448.50;;;16.59;55.20
9523;BME280;63165;43.016;25.784;2023-11-21T14:06:27;99465.44;;;16.20;57.84
9523;BME280;63165;43.016;25.784;2023-11-21T14:09:02;99434.88;;;15.97;57.75
9523;BME280;63165;43.016;25.784;2023-11-21T14:11:36;99459.56;;;15.96;57.59
9523;BME280;63165;43.016;25.784;2023-11-21T14:22:47;99453.78;;;15.68;60.77
9523;BME280;63165;43.016;25.784;2023-11-21T14:25:24;99454.84;;;15.45;60.79